Time;durP1;ratioP1;P1;durP2;ratioP2;P2;SDS_P1;SDS_P2;PMS_P1;PMS_P2;Temp;Humidity;BMP_temperature;BMP_pressure;BME280_temperature;BME280_humidity;BME280_pressure;Samples;Min_cycle;Max_cycle;Signal;HPM_P1;HPM_P2
2022/09/07 00:00:43;;;;;;;9.77;0.40;;;;;;;14.03;100.00;100267.88;5034699;28;20047;-60
2022/09/07 00:03:09;;;;;;;6.72;0.40;;;;;;;14.03;100.00;100262.53;5035694;28;20100;-57
2022/09/07 00:05:41;;;;;;;11.05;1.63;;;;;;;14.05;100.00;100271.13;5035475;28;20021;-59
2022/09/07 00:08:06;;;;;;;5.45;1.05;;;;;;;14.09;100.00;100251.00;5032007;28;20054;-60
2022/09/07 00:10:31;;;;;;;3.42;1.13;;;;;;;14.10;100.00;100252.63;5034974;28;20021;-60
2022/09/07 00:12:57;;;;;;;3.90;0.40;;;;;;;14.08;100.00;100246.72;5033014;28;20037;-58
2022/09/07 00:15:22;;;;;;;2.72;0.65;;;;;;;14.05;100.00;100244.47;5035890;28;20606;-59
2022/09/07 00:17:48;;;;;;;1.23;0.20;;;;;;;14.03;100.00;100245.75;5036455;28;20461;-59
2022/09/07 00:20:13;;;;;;;5.40;0.52;;;;;;;13.98;100.00;100250.91;5032721;28;20033;-61
2022/09/07 00:22:39;;;;;;;2.03;1.05;;;;;;;13.98;100.00;100246.38;5038562;28;20037;-61
2022/09/07 00:25:05;;;;;;;5.25;1.52;;;;;;;14.01;100.00;100243.28;5034410;28;20037;-62
2022/09/07 00:27:30;;;;;;;0.70;0.20;;;;;;;14.00;100.00;100252.31;5037007;28;20116;-56
2022/09/07 00:29:56;;;;;;;2.78;0.35;;;;;;;13.95;100.00;100239.66;5040115;28;20111;-60
2022/09/07 00:32:21;;;;;;;5.93;0.50;;;;;;;13.94;100.00;100242.56;5037570;28;20120;-60
2022/09/07 00:34:47;;;;;;;3.95;0.38;;;;;;;13.93;100.00;100244.38;5033588;28;20045;-55
2022/09/07 00:37:12;;;;;;;2.35;0.30;;;;;;;13.98;100.00;100248.25;5043171;28;20035;-59
2022/09/07 00:39:38;;;;;;;1.42;0.47;;;;;;;13.99;100.00;100237.34;5045783;28;20466;-59
2022/09/07 00:42:03;;;;;;;6.38;0.40;;;;;;;14.00;100.00;100239.00;5034998;28;20131;-60
2022/09/07 00:44:41;;;;;;;11.07;1.02;;;;;;;14.02;100.00;100234.25;5038943;28;20503;-55
2022/09/07 00:47:17;;;;;;;3.17;0.30;;;;;;;14.07;100.00;100236.25;5045774;28;20112;-59
2022/09/07 00:49:47;;;;;;;4.70;0.20;;;;;;;14.12;100.00;100228.41;5041874;28;20051;-58
2022/09/07 00:52:16;;;;;;;6.95;1.23;;;;;;;14.14;100.00;100229.00;5045671;28;20059;-61
2022/09/07 00:54:46;;;;;;;2.97;0.52;;;;;;;14.16;100.00;100229.63;5022460;28;20037;-62
2022/09/07 00:57:12;;;;;;;2.67;0.57;;;;;;;14.15;100.00;100225.31;5035681;28;20087;-62
2022/09/07 00:59:42;;;;;;;4.78;0.70;;;;;;;14.14;100.00;100221.81;5038578;28;20037;-60
2022/09/07 01:02:08;;;;;;;7.40;1.05;;;;;;;14.14;100.00;100227.16;5033368;28;20381;-61
2022/09/07 01:04:34;;;;;;;9.43;0.93;;;;;;;14.15;100.00;100230.66;5041098;28;20079;-59
2022/09/07 01:07:02;;;;;;;2.28;0.20;;;;;;;14.15;100.00;100228.81;5043986;28;20039;-60
2022/09/07 01:09:28;;;;;;;3.47;0.50;;;;;;;14.16;100.00;100222.41;5037506;28;20034;-59
2022/09/07 01:11:57;;;;;;;2.58;0.20;;;;;;;14.17;100.00;100204.56;5035653;28;20389;-59
2022/09/07 01:14:30;;;;;;;5.88;0.38;;;;;;;14.16;100.00;100209.09;5039892;28;20041;-59
2022/09/07 01:17:01;;;;;;;3.85;0.95;;;;;;;14.17;100.00;100223.22;5035995;28;20457;-60
2022/09/07 01:19:48;;;;;;;4.95;0.93;;;;;;;14.17;100.00;100213.41;5044935;28;20198;-59
2022/09/07 01:22:32;;;;;;;5.55;1.40;;;;;;;14.19;100.00;100215.84;5034062;28;20397;-56
2022/09/07 01:25:31;;;;;;;2.55;0.63;;;;;;;14.18;100.00;100216.88;5039588;28;20555;-57
2022/09/07 01:28:22;;;;;;;3.65;0.95;;;;;;;14.19;100.00;100218.50;5037887;28;20069;-60
2022/09/07 01:30:55;;;;;;;3.40;1.02;;;;;;;14.17;100.00;100218.75;5040521;28;20029;-57
2022/09/07 01:33:49;;;;;;;9.65;1.40;;;;;;;14.21;100.00;100216.44;5043752;28;20102;-58
2022/09/07 01:36:17;;;;;;;2.60;0.68;;;;;;;14.23;100.00;100218.88;5032036;28;20033;-60
2022/09/07 01:38:53;;;;;;;8.63;0.85;;;;;;;14.27;100.00;100217.41;5047137;28;20040;-58
2022/09/07 01:41:36;;;;;;;2.03;0.30;;;;;;;14.27;100.00;100220.88;5040551;28;20075;-59
2022/09/07 01:44:13;;;;;;;9.48;0.40;;;;;;;14.26;100.00;100213.09;5045856;28;20052;-53
2022/09/07 01:46:47;;;;;;;4.30;0.30;;;;;;;14.28;100.00;100211.03;5038789;28;20030;-59
2022/09/07 01:49:26;;;;;;;6.28;0.40;;;;;;;14.32;100.00;100212.22;5036440;28;20376;-59
2022/09/07 01:51:59;;;;;;;3.83;0.95;;;;;;;14.35;100.00;100211.75;5043001;28;20026;-56
2022/09/07 01:54:38;;;;;;;3.53;0.20;;;;;;;14.35;100.00;100214.44;5048497;28;20032;-57
2022/09/07 01:57:15;;;;;;;3.13;0.85;;;;;;;14.35;100.00;100217.09;5036014;28;20030;-59
2022/09/07 01:59:57;;;;;;;4.05;0.90;;;;;;;14.35;100.00;100215.28;5041351;28;20082;-57
2022/09/07 02:02:29;;;;;;;5.22;0.25;;;;;;;14.32;100.00;100207.69;5037458;28;20085;-59
2022/09/07 02:05:01;;;;;;;1.45;0.25;;;;;;;14.30;100.00;100212.44;5030121;28;20197;-55
2022/09/07 02:07:28;;;;;;;6.53;1.80;;;;;;;14.27;100.00;100204.06;5037355;28;20056;-59
2022/09/07 02:10:12;;;;;;;2.88;0.20;;;;;;;14.23;100.00;100203.69;5043092;28;20520;-56
2022/09/07 02:12:52;;;;;;;2.72;0.93;;;;;;;14.16;100.00;100193.09;5028722;28;20055;-59
2022/09/07 02:15:22;;;;;;;1.77;0.60;;;;;;;14.11;100.00;100195.59;5037334;28;20112;-59
2022/09/07 02:17:53;;;;;;;3.13;0.55;;;;;;;14.08;100.00;100201.38;5039635;28;20051;-58
2022/09/07 02:20:25;;;;;;;4.10;0.52;;;;;;;14.09;100.00;100197.66;5042824;28;20041;-59
2022/09/07 02:22:56;;;;;;;4.85;0.20;;;;;;;14.09;100.00;100195.00;5040438;28;20044;-58
2022/09/07 02:25:27;;;;;;;3.45;0.80;;;;;;;14.08;100.00;100195.25;5038555;28;20028;-59
2022/09/07 02:27:58;;;;;;;8.63;0.70;;;;;;;14.04;100.00;100194.84;5037998;28;20039;-59
2022/09/07 02:30:24;;;;;;;3.45;1.02;;;;;;;14.01;100.00;100189.16;5041759;28;20412;-58
2022/09/07 02:32:49;;;;;;;9.43;0.95;;;;;;;13.96;100.00;100187.16;5033630;28;20453;-57
2022/09/07 02:35:15;;;;;;;2.28;0.30;;;;;;;13.90;100.00;100188.84;5041117;28;20029;-59
2022/09/07 02:37:42;;;;;;;4.82;1.13;;;;;;;13.89;100.00;100189.09;5034384;28;20436;-59
2022/09/07 02:40:09;;;;;;;3.17;0.30;;;;;;;13.95;100.00;100201.53;5044965;28;20063;-59
2022/09/07 02:42:35;;;;;;;1.73;0.43;;;;;;;14.00;100.00;100195.53;5033825;28;20025;-57
2022/09/07 02:45:05;;;;;;;6.32;0.82;;;;;;;14.09;100.00;100199.53;5035483;28;20112;-57
2022/09/07 02:47:39;;;;;;;5.72;0.85;;;;;;;14.13;100.00;100198.88;5036334;28;20128;-57
2022/09/07 02:50:43;;;;;;;4.47;0.93;;;;;;;14.18;100.00;100196.34;5035234;28;20061;-59
2022/09/07 02:53:37;;;;;;;4.82;0.47;;;;;;;14.19;100.00;100191.84;5032631;28;20076;-56
2022/09/07 02:56:15;;;;;;;5.60;1.30;;;;;;;14.20;100.00;100198.81;5040423;28;20032;-55
2022/09/07 02:58:59;;;;;;;3.45;0.60;;;;;;;14.21;100.00;100196.97;5043289;28;20482;-59
2022/09/07 03:01:50;;;;;;;3.30;0.47;;;;;;;14.21;100.00;100195.09;5026827;28;20033;-56
2022/09/07 03:04:42;;;;;;;3.63;0.43;;;;;;;14.23;100.00;100202.88;5024865;28;20115;-55
2022/09/07 03:07:25;;;;;;;5.13;0.20;;;;;;;14.23;100.00;100206.38;5041645;28;20041;-58
2022/09/07 03:09:53;;;;;;;3.33;0.73;;;;;;;14.24;100.00;100204.50;5028725;28;20029;-57
2022/09/07 03:12:19;;;;;;;1.92;0.10;;;;;;;14.23;100.00;100198.38;5040894;28;20045;-58
2022/09/07 03:14:45;;;;;;;3.75;0.20;;;;;;;14.23;100.00;100214.38;5031852;28;20401;-56
2022/09/07 03:17:11;;;;;;;4.80;0.75;;;;;;;14.24;100.00;100212.50;5039425;28;20025;-56
2022/09/07 03:19:37;;;;;;;1.83;0.20;;;;;;;14.23;100.00;100219.69;5040743;28;20029;-56
2022/09/07 03:22:03;;;;;;;1.65;0.28;;;;;;;14.23;100.00;100219.69;5038926;28;20142;-59
2022/09/07 03:24:29;;;;;;;3.42;0.70;;;;;;;14.24;100.00;100221.31;5033677;28;20036;-59
2022/09/07 03:26:57;;;;;;;0.88;0.03;;;;;;;14.26;100.00;100229.91;5038648;28;20029;-57
2022/09/07 03:29:22;;;;;;;2.60;0.65;;;;;;;14.26;100.00;100229.09;5040112;28;20124;-56
2022/09/07 03:31:48;;;;;;;1.10;0.20;;;;;;;14.25;100.00;100227.47;5034473;28;20057;-56
2022/09/07 03:34:15;;;;;;;0.82;0.10;;;;;;;14.25;100.00;100225.63;5034124;28;20578;-58
2022/09/07 03:36:40;;;;;;;4.32;0.30;;;;;;;14.25;100.00;100233.63;5038607;28;20068;-59
2022/09/07 03:39:06;;;;;;;0.85;0.22;;;;;;;14.26;100.00;100237.91;5035723;28;20086;-60
2022/09/07 03:41:32;;;;;;;1.10;0.30;;;;;;;14.28;100.00;100233.19;5037119;28;20029;-59
2022/09/07 03:44:04;;;;;;;0.73;0.10;;;;;;;14.26;100.00;100235.25;5032658;28;20037;-57
2022/09/07 03:46:31;;;;;;;1.75;0.45;;;;;;;14.22;100.00;100228.72;5043678;28;20032;-55
2022/09/07 03:48:56;;;;;;;2.42;0.10;;;;;;;14.23;100.00;100230.38;5035747;28;20108;-56
2022/09/07 03:51:21;;;;;;;1.85;0.30;;;;;;;14.25;100.00;100230.13;5038314;28;20116;-58
2022/09/07 03:53:47;;;;;;;2.15;0.50;;;;;;;14.23;100.00;100227.69;5046625;28;20028;-59
2022/09/07 03:56:16;;;;;;;1.45;0.55;;;;;;;14.17;100.00;100226.75;5042162;28;20041;-55
2022/09/07 03:58:43;;;;;;;6.00;0.80;;;;;;;14.06;100.00;100227.44;5050680;28;20422;-58
2022/09/07 04:01:12;;;;;;;2.28;0.77;;;;;;;13.92;100.00;100218.75;5036964;28;20028;-56
2022/09/07 04:03:38;;;;;;;3.08;1.17;;;;;;;13.82;100.00;100213.13;5042959;28;20424;-60
2022/09/07 04:06:04;;;;;;;5.13;0.60;;;;;;;13.74;100.00;100216.88;5042218;28;20482;-59
2022/09/07 04:08:32;;;;;;;3.35;0.40;;;;;;;13.71;100.00;100219.16;5045871;28;20111;-59
2022/09/07 04:11:03;;;;;;;4.47;0.88;;;;;;;13.69;100.00;100218.56;5042582;28;20051;-59
2022/09/07 04:13:29;;;;;;;1.92;0.82;;;;;;;13.74;100.00;100221.38;5034947;28;20076;-57
2022/09/07 04:15:55;;;;;;;2.92;0.50;;;;;;;13.71;100.00;100217.31;5030713;28;20038;-59
2022/09/07 04:18:21;;;;;;;2.63;0.35;;;;;;;13.69;100.00;100219.38;5036750;28;20395;-58
2022/09/07 04:20:48;;;;;;;3.15;0.70;;;;;;;13.69;100.00;100214.03;5031540;28;20035;-55
2022/09/07 04:23:14;;;;;;;2.92;0.50;;;;;;;13.74;100.00;100214.22;5038120;28;20533;-60
2022/09/07 04:25:49;;;;;;;4.55;0.82;;;;;;;13.83;100.00;100219.25;5035837;28;20036;-59
2022/09/07 04:28:16;;;;;;;2.38;1.40;;;;;;;13.86;100.00;100224.16;5038636;28;20037;-60
2022/09/07 04:30:41;;;;;;;11.30;0.50;;;;;;;13.84;100.00;100223.56;5043998;28;20453;-55
2022/09/07 04:33:08;;;;;;;5.97;1.25;;;;;;;13.81;100.00;100234.66;5042143;28;20106;-59
2022/09/07 04:35:37;;;;;;;4.47;0.95;;;;;;;13.83;100.00;100230.72;5050255;28;20405;-59
2022/09/07 04:38:03;;;;;;;2.47;0.30;;;;;;;13.88;100.00;100232.75;5034627;28;20049;-60
2022/09/07 04:40:29;;;;;;;4.03;0.40;;;;;;;13.91;100.00;100233.13;5041862;28;20063;-58
2022/09/07 04:42:54;;;;;;;3.40;0.43;;;;;;;13.96;100.00;100241.28;5038626;28;20049;-59
2022/09/07 04:45:19;;;;;;;5.57;0.70;;;;;;;13.98;100.00;100235.72;5043954;28;20115;-60
2022/09/07 04:47:48;;;;;;;3.42;0.63;;;;;;;14.00;100.00;100241.66;5042288;28;20497;-58
2022/09/07 04:50:17;;;;;;;4.72;0.50;;;;;;;13.98;100.00;100240.25;5036639;28;20275;-59
2022/09/07 04:52:43;;;;;;;2.75;0.75;;;;;;;13.95;100.00;100238.84;5039487;28;20034;-62
2022/09/07 04:55:09;;;;;;;5.05;1.25;;;;;;;13.92;100.00;100240.09;5036983;28;20501;-61
2022/09/07 04:57:34;;;;;;;4.65;0.50;;;;;;;13.91;100.00;100240.28;5043860;28;20022;-60
2022/09/07 05:00:00;;;;;;;6.30;1.92;;;;;;;13.95;100.00;100241.50;5038339;28;20382;-57
2022/09/07 05:02:25;;;;;;;5.03;0.95;;;;;;;13.96;100.00;100243.97;5036325;28;20029;-60
2022/09/07 05:04:51;;;;;;;3.22;0.85;;;;;;;13.96;100.00;100248.44;5040012;28;20036;-61
2022/09/07 05:07:16;;;;;;;4.55;1.38;;;;;;;13.99;100.00;100260.53;5041326;28;20029;-60
2022/09/07 05:09:41;;;;;;;0.73;0.52;;;;;;;13.99;100.00;100260.53;5041661;28;20029;-60
2022/09/07 05:12:07;;;;;;;5.53;0.82;;;;;;;13.98;100.00;100257.06;5040030;28;20047;-60
2022/09/07 05:14:32;;;;;;;6.43;1.35;;;;;;;13.99;100.00;100255.19;5045370;28;20037;-61
2022/09/07 05:16:58;;;;;;;2.83;0.90;;;;;;;13.98;100.00;100257.06;5040902;28;20052;-61
2022/09/07 05:19:23;;;;;;;4.28;0.50;;;;;;;14.00;100.00;100259.50;5036293;28;20033;-61
2022/09/07 05:21:49;;;;;;;3.08;0.65;;;;;;;14.00;100.00;100255.00;5035781;28;20029;-60
2022/09/07 05:24:14;;;;;;;10.75;1.38;;;;;;;14.00;100.00;100255.00;5042655;28;20493;-61
2022/09/07 05:26:39;;;;;;;11.65;1.83;;;;;;;14.00;100.00;100262.19;5039564;28;20022;-61
2022/09/07 05:29:06;;;;;;;6.25;1.10;;;;;;;14.00;100.00;100251.50;5038452;28;20445;-61
2022/09/07 05:31:32;;;;;;;2.30;0.88;;;;;;;13.98;100.00;100254.38;5043601;28;20037;-56
2022/09/07 05:33:57;;;;;;;2.63;0.70;;;;;;;13.97;100.00;100252.75;5041184;28;20386;-60
2022/09/07 05:36:27;;;;;;;4.70;0.47;;;;;;;13.93;100.00;100247.03;5032787;28;20542;-60
2022/09/07 05:38:53;;;;;;;6.40;0.80;;;;;;;13.91;100.00;100250.97;5034174;28;20033;-60
2022/09/07 05:41:20;;;;;;;9.38;2.28;;;;;;;13.84;100.00;100252.88;5028076;28;20028;-57
2022/09/07 05:43:47;;;;;;;8.90;1.58;;;;;;;13.78;100.00;100267.88;5038796;28;20028;-60
2022/09/07 05:46:14;;;;;;;3.53;0.52;;;;;;;13.73;100.00;100257.88;5031006;28;20036;-61
2022/09/07 05:48:40;;;;;;;5.30;1.05;;;;;;;13.72;100.00;100256.25;5032063;28;20376;-58
2022/09/07 05:51:06;;;;;;;13.43;1.92;;;;;;;13.67;100.00;100255.25;5036335;28;20504;-59
2022/09/07 05:53:39;;;;;;;5.78;0.70;;;;;;;13.67;100.00;100253.41;5032344;28;20034;-59
2022/09/07 05:56:06;;;;;;;4.45;1.52;;;;;;;13.67;100.00;100252.59;5034627;28;20121;-59
2022/09/07 05:58:32;;;;;;;6.05;1.00;;;;;;;13.66;100.00;100259.78;5034789;28;20040;-59
2022/09/07 06:01:05;;;;;;;6.68;1.25;;;;;;;13.66;100.00;100256.31;5034790;28;20447;-60
2022/09/07 06:03:31;;;;;;;8.35;1.15;;;;;;;13.62;100.00;100255.09;5030550;28;20033;-59
2022/09/07 06:06:04;;;;;;;6.50;1.02;;;;;;;13.58;100.00;100254.72;5039584;28;20036;-61
2022/09/07 06:08:31;;;;;;;8.55;0.90;;;;;;;13.53;100.00;100262.53;5036929;28;20037;-59
2022/09/07 06:10:57;;;;;;;6.95;0.63;;;;;;;13.49;100.00;100259.47;5038872;28;20029;-60
2022/09/07 06:13:22;;;;;;;6.60;1.92;;;;;;;13.49;100.00;100261.31;5037939;28;20083;-60
2022/09/07 06:15:48;;;;;;;7.43;1.67;;;;;;;13.48;100.00;100265.84;5036457;28;20029;-60
2022/09/07 06:18:13;;;;;;;6.57;1.33;;;;;;;13.46;100.00;100262.56;5031547;28;20029;-60
2022/09/07 06:20:38;;;;;;;11.38;2.13;;;;;;;13.46;100.00;100265.25;5034679;28;20037;-55
2022/09/07 06:23:06;;;;;;;6.88;1.80;;;;;;;13.45;100.00;100268.94;5030610;28;20061;-60
2022/09/07 06:25:31;;;;;;;5.72;0.73;;;;;;;13.45;100.00;100273.44;5026641;28;20037;-58
2022/09/07 06:27:57;;;;;;;9.10;2.78;;;;;;;13.44;100.00;100269.97;5035255;28;20155;-60
2022/09/07 06:30:24;;;;;;;11.98;1.63;;;;;;;13.45;100.00;100262.78;5028725;28;20024;-61
2022/09/07 06:32:49;;;;;;;5.93;1.95;;;;;;;13.46;100.00;100259.09;5037075;28;20134;-58
2022/09/07 06:35:14;;;;;;;9.82;1.88;;;;;;;13.48;100.00;100254.38;5035309;28;20025;-56
2022/09/07 06:37:41;;;;;;;14.20;2.78;;;;;;;13.49;100.00;100258.66;5033818;28;20063;-60
2022/09/07 06:40:07;;;;;;;6.90;1.73;;;;;;;13.48;100.00;100249.88;5039456;28;20056;-57
2022/09/07 06:42:33;;;;;;;12.60;1.05;;;;;;;13.49;100.00;100264.00;5041454;28;20421;-60
2022/09/07 06:44:58;;;;;;;3.55;1.13;;;;;;;13.51;100.00;100260.09;5032310;28;20033;-61
2022/09/07 06:47:24;;;;;;;12.38;2.22;;;;;;;13.51;100.00;100268.06;5034811;28;20033;-61
2022/09/07 06:49:49;;;;;;;6.22;1.17;;;;;;;13.53;100.00;100258.03;5037610;28;20037;-59
2022/09/07 06:52:14;;;;;;;8.48;0.93;;;;;;;13.55;100.00;100268.44;5035163;28;20108;-60
2022/09/07 06:54:40;;;;;;;3.30;1.30;;;;;;;13.60;100.00;100265.94;5038951;28;20057;-60
2022/09/07 06:57:07;;;;;;;9.02;0.75;;;;;;;13.66;100.00;100273.09;5036848;28;20033;-59
2022/09/07 06:59:33;;;;;;;7.88;2.45;;;;;;;13.74;100.00;100275.50;5032136;28;20036;-55
2022/09/07 07:01:59;;;;;;;4.95;0.82;;;;;;;13.87;100.00;100273.75;5022843;28;20044;-61
2022/09/07 07:04:24;;;;;;;10.95;1.05;;;;;;;14.02;100.00;100271.59;4994349;28;20028;-61
2022/09/07 07:06:49;;;;;;;7.57;1.80;;;;;;;14.20;100.00;100273.47;5018864;28;20037;-60
2022/09/07 07:09:15;;;;;;;9.55;1.80;;;;;;;14.26;100.00;100282.44;5029129;28;20033;-60
2022/09/07 07:11:42;;;;;;;10.88;2.83;;;;;;;14.29;100.00;100292.66;5033213;28;20037;-55
2022/09/07 07:14:12;;;;;;;14.50;1.55;;;;;;;14.30;100.00;100283.63;5031285;28;20434;-60
2022/09/07 07:16:38;;;;;;;4.60;1.50;;;;;;;14.27;100.00;100287.53;5031396;28;20112;-54
2022/09/07 07:19:03;;;;;;;10.77;1.42;;;;;;;14.24;100.00;100284.50;5036364;28;20100;-62
2022/09/07 07:21:28;;;;;;;2.80;0.65;;;;;;;14.19;100.00;100287.81;5041239;28;20094;-60
2022/09/07 07:23:54;;;;;;;6.97;1.52;;;;;;;14.11;100.00;100286.25;5040620;28;20068;-61
2022/09/07 07:26:22;;;;;;;8.90;1.25;;;;;;;14.03;100.00;100278.53;5042361;28;20072;-57
2022/09/07 07:28:50;;;;;;;8.30;1.58;;;;;;;13.99;100.00;100281.84;5041252;28;20025;-61
2022/09/07 07:31:17;;;;;;;10.45;2.08;;;;;;;13.96;100.00;100288.44;5035983;28;20025;-58
2022/09/07 07:33:45;;;;;;;5.10;0.57;;;;;;;13.96;100.00;100291.09;5042863;28;20027;-59
2022/09/07 07:36:14;;;;;;;7.60;2.17;;;;;;;14.02;100.00;100292.91;5045408;28;20334;-59
2022/09/07 07:38:41;;;;;;;8.45;0.50;;;;;;;14.15;100.00;100292.78;5041093;28;20029;-61
2022/09/07 07:41:07;;;;;;;7.93;1.42;;;;;;;14.25;100.00;100291.47;5045036;28;20029;-60
2022/09/07 07:43:32;;;;;;;6.53;2.58;;;;;;;14.42;100.00;100292.53;5043435;28;20036;-60
2022/09/07 07:45:58;;;;;;;6.00;1.55;;;;;;;14.64;100.00;100294.78;5043262;28;20045;-59
2022/09/07 07:48:25;;;;;;;5.07;0.93;;;;;;;14.77;100.00;100289.31;5043724;28;20028;-60
2022/09/07 07:51:02;;;;;;;6.80;0.55;;;;;;;14.74;100.00;100290.59;5042791;28;20028;-60
2022/09/07 07:53:28;;;;;;;5.35;0.95;;;;;;;14.81;100.00;100287.81;5041814;28;20040;-56
2022/09/07 07:55:58;;;;;;;6.10;1.60;;;;;;;14.99;100.00;100287.00;5045310;28;20481;-60
2022/09/07 07:58:26;;;;;;;7.30;1.73;;;;;;;15.30;100.00;100295.84;5041174;28;20094;-61
2022/09/07 08:00:52;;;;;;;12.48;2.20;;;;;;;15.34;100.00;100289.81;5045370;28;20036;-59
2022/09/07 08:03:17;;;;;;;10.60;1.67;;;;;;;15.24;100.00;100284.22;5045684;28;20033;-57
2022/09/07 08:05:43;;;;;;;5.55;0.90;;;;;;;15.15;100.00;100285.56;5044281;28;20033;-59
2022/09/07 08:08:09;;;;;;;9.57;2.28;;;;;;;15.13;100.00;100276.97;5044506;28;20104;-58
2022/09/07 08:10:34;;;;;;;8.90;1.35;;;;;;;15.13;100.00;100277.78;5046432;28;20472;-60
2022/09/07 08:12:59;;;;;;;4.80;0.90;;;;;;;15.14;100.00;100271.38;5035871;28;20511;-59
2022/09/07 08:15:25;;;;;;;3.53;1.15;;;;;;;15.14;100.00;100270.59;5044394;28;20040;-57
2022/09/07 08:17:50;;;;;;;4.93;1.27;;;;;;;15.15;100.00;100274.88;5045268;28;20029;-58
2022/09/07 08:20:16;;;;;;;10.63;2.85;;;;;;;15.14;100.00;100263.38;5042365;28;20037;-60
2022/09/07 08:22:41;;;;;;;6.90;1.52;;;;;;;15.17;100.00;100262.94;5044123;28;20126;-59
2022/09/07 08:25:07;;;;;;;7.47;1.25;;;;;;;15.33;100.00;100272.16;5043971;28;20085;-60
2022/09/07 08:27:33;;;;;;;9.48;1.52;;;;;;;15.56;100.00;100265.25;5046970;28;20025;-56
2022/09/07 08:29:59;;;;;;;11.13;1.85;;;;;;;15.85;100.00;100268.94;5043514;28;20045;-61
2022/09/07 08:32:25;;;;;;;6.75;1.40;;;;;;;16.24;100.00;100261.28;5042838;28;20084;-56
2022/09/07 08:34:51;;;;;;;11.38;1.05;;;;;;;16.57;100.00;100258.81;5044351;28;20129;-59
2022/09/07 08:37:16;;;;;;;7.43;0.80;;;;;;;16.79;100.00;100258.19;5039947;28;20120;-58
2022/09/07 08:39:42;;;;;;;11.30;2.10;;;;;;;16.94;100.00;100258.50;5042278;28;20409;-61
2022/09/07 08:42:10;;;;;;;8.65;1.50;;;;;;;16.92;100.00;100241.84;5042712;28;20029;-57
2022/09/07 08:44:36;;;;;;;14.23;1.67;;;;;;;16.85;100.00;100240.34;5041971;28;20444;-60
2022/09/07 08:47:13;;;;;;;11.27;2.15;;;;;;;16.72;100.00;100228.84;5042637;28;20039;-59
2022/09/07 08:49:47;;;;;;;6.78;1.80;;;;;;;16.61;100.00;100227.03;5040128;28;20327;-58
2022/09/07 08:52:24;;;;;;;8.70;1.00;;;;;;;16.64;100.00;100225.72;5043273;28;20044;-56
2022/09/07 08:55:02;;;;;;;7.63;1.42;;;;;;;16.77;100.00;100236.16;5044482;28;20120;-55
2022/09/07 08:57:34;;;;;;;4.25;1.08;;;;;;;16.79;100.00;100231.41;5045101;28;20033;-55
2022/09/07 09:00:10;;;;;;;9.80;1.95;;;;;;;16.72;100.00;100220.81;5043173;28;20039;-58
2022/09/07 09:02:36;;;;;;;11.75;1.48;;;;;;;16.69;100.00;100218.59;5044279;28;20120;-62
2022/09/07 09:05:23;;;;;;;10.00;1.60;;;;;;;16.72;100.00;100217.31;5042695;28;20183;-58
2022/09/07 09:08:08;;;;;;;15.20;3.22;;;;;;;16.81;100.00;100213.25;5045001;28;20036;-57
2022/09/07 09:10:56;;;;;;;8.95;0.98;;;;;;;16.81;100.00;100217.81;5045687;28;20048;-57
2022/09/07 09:13:51;;;;;;;11.10;2.35;;;;;;;16.67;100.00;100223.38;5040397;28;20534;-59
2022/09/07 09:16:25;;;;;;;8.05;2.20;;;;;;;16.49;100.00;100226.22;5044105;28;20037;-58
2022/09/07 09:19:06;;;;;;;11.88;1.50;;;;;;;16.38;100.00;100222.53;5042993;28;20031;-59
2022/09/07 09:21:33;;;;;;;8.48;1.45;;;;;;;16.39;100.00;100223.34;5043872;28;20025;-56
2022/09/07 09:24:10;;;;;;;4.57;0.98;;;;;;;16.34;100.00;100224.03;5042565;28;20106;-61
2022/09/07 09:26:37;;;;;;;6.95;1.13;;;;;;;16.33;100.00;100217.06;5043885;28;20525;-60
2022/09/07 09:29:18;;;;;;;12.00;2.00;;;;;;;16.31;100.00;100214.63;5043132;28;20475;-54
2022/09/07 09:31:43;;;;;;;4.38;1.75;;;;;;;16.28;100.00;100208.94;5039508;28;20099;-62
2022/09/07 09:34:19;;;;;;;5.30;1.08;;;;;;;16.35;100.00;100205.09;5041482;28;20458;-59
2022/09/07 09:36:51;;;;;;;4.55;1.05;;;;;;;16.55;100.00;100206.56;5041405;28;20493;-60
2022/09/07 09:39:23;;;;;;;6.28;1.08;;;;;;;16.86;100.00;100201.84;5044053;28;20340;-55
2022/09/07 09:41:49;;;;;;;4.05;0.40;;;;;;;17.08;100.00;100196.59;5038313;28;20033;-61
2022/09/07 09:44:16;;;;;;;11.43;1.08;;;;;;;17.17;100.00;100195.16;5041037;28;20041;-60
2022/09/07 09:46:47;;;;;;;3.58;0.82;;;;;;;17.26;100.00;100192.91;5041769;28;20374;-62
2022/09/07 09:49:18;;;;;;;11.95;2.15;;;;;;;17.34;100.00;100203.22;5043230;28;20063;-62
2022/09/07 09:51:51;;;;;;;2.83;0.70;;;;;;;17.40;100.00;100196.91;5040568;28;20046;-59
2022/09/07 09:54:37;;;;;;;4.05;1.05;;;;;;;17.35;100.00;100186.91;5041510;28;20108;-62
2022/09/07 09:57:03;;;;;;;8.10;1.98;;;;;;;17.10;100.00;100186.47;5041173;28;20117;-61
2022/09/07 09:59:31;;;;;;;6.35;1.02;;;;;;;16.75;100.00;100190.91;5038470;28;20025;-59
2022/09/07 10:01:57;;;;;;;5.03;1.88;;;;;;;16.45;100.00;100187.63;5043571;28;20037;-54
2022/09/07 10:04:22;;;;;;;4.13;0.57;;;;;;;16.22;100.00;100186.63;5036832;28;20037;-61
2022/09/07 10:06:53;;;;;;;3.78;0.52;;;;;;;16.11;100.00;100193.63;5038747;28;20284;-63
2022/09/07 10:09:23;;;;;;;3.28;1.00;;;;;;;16.06;100.00;100190.81;5032383;28;20545;-61
2022/09/07 10:11:56;;;;;;;4.70;0.43;;;;;;;16.12;100.00;100199.78;5031757;28;20406;-61
2022/09/07 10:14:29;;;;;;;5.20;1.10;;;;;;;16.16;100.00;100200.94;5028906;28;20111;-57
2022/09/07 10:16:56;;;;;;;3.92;0.93;;;;;;;16.09;100.00;100208.28;5027603;28;20036;-61
2022/09/07 10:19:38;;;;;;;2.70;0.63;;;;;;;16.02;100.00;100207.56;5029741;28;20316;-60
2022/09/07 10:22:34;;;;;;;2.03;0.75;;;;;;;16.09;100.00;100206.41;5034106;28;20041;-60
2022/09/07 10:25:01;;;;;;;2.28;0.63;;;;;;;16.46;100.00;100200.75;5039259;28;20048;-60
2022/09/07 10:27:36;;;;;;;4.43;0.75;;;;;;;16.78;100.00;100203.84;5042254;28;20041;-62
2022/09/07 10:30:11;;;;;;;5.78;0.95;;;;;;;16.90;100.00;100189.59;5038283;28;20113;-60
2022/09/07 10:33:07;;;;;;;4.03;0.88;;;;;;;16.94;100.00;100190.75;5035506;28;20071;-61
2022/09/07 10:35:40;;;;;;;5.05;0.55;;;;;;;17.00;100.00;100189.78;5039012;28;20083;-61
2022/09/07 10:38:39;;;;;;;4.28;0.88;;;;;;;16.99;100.00;100185.47;5035351;28;20132;-53
2022/09/07 10:41:08;;;;;;;3.00;0.35;;;;;;;17.00;100.00;100179.06;5034041;28;20065;-61
2022/09/07 10:43:46;;;;;;;4.57;0.20;;;;;;;17.19;100.00;100172.44;5042565;28;20033;-62
2022/09/07 10:46:17;;;;;;;4.55;0.70;;;;;;;17.44;100.00;100157.81;5040418;28;20033;-62
2022/09/07 10:48:45;;;;;;;;;;;;;;;17.64;100.00;100142.06;5040829;28;20033;-57
2022/09/07 10:51:30;;;;;;;3.50;0.77;;;;;;;17.90;100.00;100150.50;5037956;28;20258;-55
2022/09/07 10:54:07;;;;;;;6.80;1.30;;;;;;;18.22;100.00;100141.78;5038504;28;20073;-61
2022/09/07 10:56:58;;;;;;;4.40;0.70;;;;;;;18.40;100.00;100130.72;5042649;28;20059;-62
2022/09/07 10:59:43;;;;;;;3.15;1.05;;;;;;;18.58;100.00;100136.81;5037753;28;20056;-60
2022/09/07 11:02:33;;;;;;;2.42;1.33;;;;;;;18.67;100.00;100135.31;5034539;28;20480;-60
2022/09/07 11:05:30;;;;;;;1.88;0.60;;;;;;;18.83;100.00;100134.44;5037082;28;20032;-62
2022/09/07 11:08:07;;;;;;;5.47;1.40;;;;;;;19.32;100.00;100145.06;5036946;28;20084;-60
2022/09/07 11:10:54;;;;;;;4.32;0.85;;;;;;;19.74;100.00;100120.09;5036813;28;20094;-62
2022/09/07 11:13:24;;;;;;;4.40;1.20;;;;;;;20.13;100.00;100121.63;5031814;28;20068;-61
2022/09/07 11:16:00;;;;;;;2.80;1.70;;;;;;;20.10;100.00;100104.13;5040571;28;20029;-61
2022/09/07 11:18:32;;;;;;;3.00;0.57;;;;;;;20.06;100.00;100105.75;5029154;28;20029;-64
2022/09/07 11:21:02;;;;;;;5.97;0.63;;;;;;;20.25;100.00;100111.47;5036076;28;20406;-61
2022/09/07 11:23:40;;;;;;;3.20;0.80;;;;;;;20.21;100.00;100097.72;5040693;28;20210;-59
2022/09/07 11:26:47;;;;;;;7.90;0.38;;;;;;;19.78;100.00;100088.13;5037127;28;20041;-60
2022/09/07 11:29:19;;;;;;;9.15;1.52;;;;;;;19.78;100.00;100094.31;5029458;28;20048;-61
2022/09/07 11:31:49;;;;;;;3.75;0.60;;;;;;;19.63;100.00;100082.63;5034174;28;20037;-59